sensor_id;sensor_type;location;lat;lon;timestamp;pressure;altitude;pressure_sealevel;temperature;humidity
29909;BME280;36247;51.952;6.146;2023-07-29T00:00:43;100611.56;;;18.15;100.00
29909;BME280;36247;51.952;6.146;2023-07-29T00:03:10;100613.25;;;18.21;100.00
29909;BME280;36247;51.952;6.146;2023-07-29T00:05:41;100610.50;;;18.24;100.00
29909;BME280;36247;51.952;6.146;2023-07-29T00:08:08;100602.28;;;18.31;100.00
29909;BME280;36247;51.952;6.146;2023-07-29T00:10:37;100613.13;;;18.25;100.00
29909;BME280;36247;51.952;6.146;2023-07-29T00:13:03;100611.47;;;18.20;100.00
29909;BME280;36247;51.952;6.146;2023-07-29T00:15:29;100615.22;;;18.12;100.00
29909;BME280;36247;51.952;6.146;2023-07-29T00:17:55;100604.59;;;18.08;100.00
29909;BME280;36247;51.952;6.146;2023-07-29T00:20:20;100605.56;;;18.04;100.00
29909;BME280;36247;51.952;6.146;2023-07-29T00:22:46;100605.72;;;17.96;100.00
29909;BME280;36247;51.952;6.146;2023-07-29T00:25:13;100602.00;;;18.02;100.00
29909;BME280;36247;51.952;6.146;2023-07-29T00:27:38;100598.59;;;17.95;100.00
29909;BME280;36247;51.952;6.146;2023-07-29T00:30:09;100607.34;;;18.03;100.00
29909;BME280;36247;51.952;6.146;2023-07-29T00:32:35;100600.03;;;18.11;100.00
29909;BME280;36247;51.952;6.146;2023-07-29T00:35:01;100594.84;;;18.04;100.00
29909;BME280;36247;51.952;6.146;2023-07-29T00:37:28;100593.22;;;17.95;100.00
29909;BME280;36247;51.952;6.146;2023-07-29T00:39:53;100579.84;;;17.95;100.00
29909;BME280;36247;51.952;6.146;2023-07-29T00:42:19;100584.41;;;17.87;100.00
29909;BME280;36247;51.952;6.146;2023-07-29T00:44:44;100577.38;;;17.83;100.00
29909;BME280;36247;51.952;6.146;2023-07-29T00:47:12;100573.06;;;17.75;100.00
29909;BME280;36247;51.952;6.146;2023-07-29T00:49:43;100570.56;;;17.66;100.00
29909;BME280;36247;51.952;6.146;2023-07-29T00:52:10;100574.44;;;17.50;100.00
29909;BME280;36247;51.952;6.146;2023-07-29T00:54:43;100574.41;;;17.53;100.00
29909;BME280;36247;51.952;6.146;2023-07-29T00:57:10;100574.41;;;17.53;100.00
29909;BME280;36247;51.952;6.146;2023-07-29T00:59:43;100577.06;;;17.53;100.00
29909;BME280;36247;51.952;6.146;2023-07-29T01:02:08;100571.78;;;17.50;100.00
29909;BME280;36247;51.952;6.146;2023-07-29T01:04:34;100572.78;;;17.44;100.00
29909;BME280;36247;51.952;6.146;2023-07-29T01:07:21;100577.13;;;17.50;100.00
29909;BME280;36247;51.952;6.146;2023-07-29T01:10:02;100572.94;;;17.35;100.00
29909;BME280;36247;51.952;6.146;2023-07-29T01:17:55;100584.44;;;17.40;100.00
29909;BME280;36247;51.952;6.146;2023-07-29T01:20:25;100600.53;;;17.38;100.00
29909;BME280;36247;51.952;6.146;2023-07-29T01:22:51;100598.66;;;17.43;100.00
29909;BME280;36247;51.952;6.146;2023-07-29T01:25:17;100596.63;;;17.56;100.00
29909;BME280;36247;51.952;6.146;2023-07-29T01:27:45;100587.72;;;17.56;100.00
29909;BME280;36247;51.952;6.146;2023-07-29T01:30:13;100583.47;;;17.44;100.00
29909;BME280;36247;51.952;6.146;2023-07-29T01:32:54;100573.00;;;17.32;100.00
29909;BME280;36247;51.952;6.146;2023-07-29T01:35:27;100568.59;;;17.27;100.00
29909;BME280;36247;51.952;6.146;2023-07-29T01:38:05;100566.75;;;17.31;100.00
29909;BME280;36247;51.952;6.146;2023-07-29T01:40:33;100563.38;;;17.21;100.00
29909;BME280;36247;51.952;6.146;2023-07-29T01:43:00;100555.59;;;17.06;100.00
29909;BME280;36247;51.952;6.146;2023-07-29T01:45:25;100554.72;;;17.05;100.00
29909;BME280;36247;51.952;6.146;2023-07-29T01:47:52;100542.19;;;17.07;100.00
29909;BME280;36247;51.952;6.146;2023-07-29T01:50:17;100556.13;;;17.26;100.00
29909;BME280;36247;51.952;6.146;2023-07-29T01:52:44;100557.94;;;17.26;100.00
29909;BME280;36247;51.952;6.146;2023-07-29T01:55:13;100550.63;;;17.34;100.00
29909;BME280;36247;51.952;6.146;2023-07-29T01:57:38;100552.53;;;17.27;100.00
29909;BME280;36247;51.952;6.146;2023-07-29T02:00:13;100553.41;;;17.28;100.00
29909;BME280;36247;51.952;6.146;2023-07-29T02:02:44;100559.19;;;17.05;100.00
29909;BME280;36247;51.952;6.146;2023-07-29T02:05:13;100560.84;;;17.12;100.00
29909;BME280;36247;51.952;6.146;2023-07-29T02:07:44;100555.16;;;17.31;100.00
29909;BME280;36247;51.952;6.146;2023-07-29T02:10:13;100548.94;;;17.28;100.00
29909;BME280;36247;51.952;6.146;2023-07-29T02:12:43;100550.72;;;17.30;100.00
29909;BME280;36247;51.952;6.146;2023-07-29T02:15:09;100551.59;;;17.30;100.00
29909;BME280;36247;51.952;6.146;2023-07-29T02:17:36;100541.88;;;17.26;100.00
29909;BME280;36247;51.952;6.146;2023-07-29T02:20:01;100543.56;;;17.30;100.00
29909;BME280;36247;51.952;6.146;2023-07-29T02:22:29;100541.06;;;17.21;100.00
29909;BME280;36247;51.952;6.146;2023-07-29T02:24:54;100543.72;;;17.21;100.00
29909;BME280;36247;51.952;6.146;2023-07-29T02:27:20;100550.00;;;17.21;100.00
29909;BME280;36247;51.952;6.146;2023-07-29T02:29:45;100549.03;;;17.24;100.00
29909;BME280;36247;51.952;6.146;2023-07-29T02:32:13;100547.16;;;17.29;100.00
29909;BME280;36247;51.952;6.146;2023-07-29T02:34:39;100541.91;;;17.24;100.00
29909;BME280;36247;51.952;6.146;2023-07-29T02:37:08;100542.69;;;17.30;100.00
29909;BME280;36247;51.952;6.146;2023-07-29T02:39:34;100546.19;;;17.33;100.00
29909;BME280;36247;51.952;6.146;2023-07-29T02:42:00;100537.00;;;17.48;100.00
29909;BME280;36247;51.952;6.146;2023-07-29T02:44:25;100537.88;;;17.49;100.00
29909;BME280;36247;51.952;6.146;2023-07-29T02:46:51;100541.25;;;17.57;100.00
29909;BME280;36247;51.952;6.146;2023-07-29T02:49:17;100543.94;;;17.57;100.00
29909;BME280;36247;51.952;6.146;2023-07-29T02:51:44;100552.94;;;17.54;100.00
29909;BME280;36247;51.952;6.146;2023-07-29T02:54:13;100551.19;;;17.52;100.00
29909;BME280;36247;51.952;6.146;2023-07-29T02:56:38;100553.09;;;17.47;100.00
29909;BME280;36247;51.952;6.146;2023-07-29T02:59:04;100548.56;;;17.49;100.00
29909;BME280;36247;51.952;6.146;2023-07-29T03:01:30;100544.06;;;17.51;100.00
29909;BME280;36247;51.952;6.146;2023-07-29T03:03:56;100541.31;;;17.54;100.00
29909;BME280;36247;51.952;6.146;2023-07-29T03:06:22;100550.22;;;17.56;100.00
29909;BME280;36247;51.952;6.146;2023-07-29T03:08:47;100540.19;;;17.66;100.00
29909;BME280;36247;51.952;6.146;2023-07-29T03:11:15;100543.88;;;17.60;100.00
29909;BME280;36247;51.952;6.146;2023-07-29T03:13:43;100539.25;;;17.68;100.00
29909;BME280;36247;51.952;6.146;2023-07-29T03:16:15;100536.53;;;17.70;100.00
29909;BME280;36247;51.952;6.146;2023-07-29T03:18:48;100542.72;;;17.73;100.00
29909;BME280;36247;51.952;6.146;2023-07-29T03:21:13;100540.06;;;17.72;100.00
29909;BME280;36247;51.952;6.146;2023-07-29T03:23:43;100540.84;;;17.78;100.00
29909;BME280;36247;51.952;6.146;2023-07-29T03:26:09;100546.13;;;17.82;100.00
29909;BME280;36247;51.952;6.146;2023-07-29T03:28:42;100544.28;;;17.84;100.00
29909;BME280;36247;51.952;6.146;2023-07-29T03:31:13;100546.94;;;17.85;100.00
29909;BME280;36247;51.952;6.146;2023-07-29T03:33:42;100531.72;;;17.87;100.00
29909;BME280;36247;51.952;6.146;2023-07-29T03:36:09;100529.13;;;17.84;100.00
29909;BME280;36247;51.952;6.146;2023-07-29T03:38:35;100541.78;;;17.76;100.00
29909;BME280;36247;51.952;6.146;2023-07-29T03:41:10;100537.34;;;17.73;100.00
29909;BME280;36247;51.952;6.146;2023-07-29T03:43:38;100537.34;;;17.73;100.00
29909;BME280;36247;51.952;6.146;2023-07-29T03:46:04;100530.97;;;17.80;100.00
29909;BME280;36247;51.952;6.146;2023-07-29T03:48:31;100535.34;;;17.85;100.00
29909;BME280;36247;51.952;6.146;2023-07-29T03:50:57;100533.69;;;17.77;100.00
29909;BME280;36247;51.952;6.146;2023-07-29T03:53:23;100527.41;;;17.80;100.00
29909;BME280;36247;51.952;6.146;2023-07-29T03:55:48;100522.91;;;17.80;100.00
29909;BME280;36247;51.952;6.146;2023-07-29T03:58:15;100529.91;;;17.89;100.00
29909;BME280;36247;51.952;6.146;2023-07-29T04:00:43;100524.66;;;17.83;100.00
29909;BME280;36247;51.952;6.146;2023-07-29T04:03:09;100518.44;;;17.83;100.00
29909;BME280;36247;51.952;6.146;2023-07-29T04:05:35;100523.88;;;17.78;100.00
29909;BME280;36247;51.952;6.146;2023-07-29T04:08:01;100521.22;;;17.76;100.00
29909;BME280;36247;51.952;6.146;2023-07-29T04:10:26;100522.16;;;17.75;100.00
29909;BME280;36247;51.952;6.146;2023-07-29T04:12:52;100523.97;;;17.73;100.00
29909;BME280;36247;51.952;6.146;2023-07-29T04:15:18;100527.66;;;17.68;100.00
29909;BME280;36247;51.952;6.146;2023-07-29T04:17:44;100526.75;;;17.67;100.00
29909;BME280;36247;51.952;6.146;2023-07-29T04:20:13;100530.25;;;17.72;100.00
29909;BME280;36247;51.952;6.146;2023-07-29T04:22:43;100531.19;;;17.70;100.00
29909;BME280;36247;51.952;6.146;2023-07-29T04:25:09;100540.25;;;17.62;100.00
29909;BME280;36247;51.952;6.146;2023-07-29T04:27:38;100535.75;;;17.66;100.00
29909;BME280;36247;51.952;6.146;2023-07-29T04:30:03;100534.09;;;17.59;100.00
29909;BME280;36247;51.952;6.146;2023-07-29T04:32:29;100531.31;;;17.63;100.00
29909;BME280;36247;51.952;6.146;2023-07-29T04:34:55;100528.50;;;17.70;100.00
29909;BME280;36247;51.952;6.146;2023-07-29T04:37:20;100532.00;;;17.73;100.00
29909;BME280;36247;51.952;6.146;2023-07-29T04:39:46;100520.53;;;17.67;100.00
29909;BME280;36247;51.952;6.146;2023-07-29T04:42:13;100510.75;;;17.64;100.00
29909;BME280;36247;51.952;6.146;2023-07-29T04:44:43;100505.38;;;17.66;100.00
29909;BME280;36247;51.952;6.146;2023-07-29T04:47:18;100501.22;;;17.51;100.00
29909;BME280;36247;51.952;6.146;2023-07-29T04:49:44;100491.38;;;17.53;100.00
29909;BME280;36247;51.952;6.146;2023-07-29T04:52:13;100489.31;;;17.64;100.00
29909;BME280;36247;51.952;6.146;2023-07-29T04:54:43;100499.97;;;17.67;100.00
29909;BME280;36247;51.952;6.146;2023-07-29T04:57:09;100516.06;;;17.67;100.00
29909;BME280;36247;51.952;6.146;2023-07-29T04:59:38;100517.06;;;17.63;100.00
29909;BME280;36247;51.952;6.146;2023-07-29T05:02:05;100525.28;;;17.52;100.00
29909;BME280;36247;51.952;6.146;2023-07-29T05:04:30;100538.56;;;17.57;100.00
29909;BME280;36247;51.952;6.146;2023-07-29T05:06:56;100538.81;;;17.44;100.00
29909;BME280;36247;51.952;6.146;2023-07-29T05:09:23;100548.75;;;17.39;100.00
29909;BME280;36247;51.952;6.146;2023-07-29T05:11:49;100561.34;;;17.34;100.00
29909;BME280;36247;51.952;6.146;2023-07-29T05:14:16;100570.19;;;17.39;100.00
29909;BME280;36247;51.952;6.146;2023-07-29T05:16:43;100563.91;;;17.39;100.00
29909;BME280;36247;51.952;6.146;2023-07-29T05:19:09;100566.66;;;17.36;100.00
29909;BME280;36247;51.952;6.146;2023-07-29T05:21:37;100555.00;;;17.38;100.00
29909;BME280;36247;51.952;6.146;2023-07-29T05:24:04;100542.25;;;17.53;100.00
29909;BME280;36247;51.952;6.146;2023-07-29T05:26:29;100545.88;;;17.50;100.00
29909;BME280;36247;51.952;6.146;2023-07-29T05:28:55;100550.34;;;17.50;100.00
29909;BME280;36247;51.952;6.146;2023-07-29T05:31:22;100551.06;;;17.58;100.00
29909;BME280;36247;51.952;6.146;2023-07-29T05:33:48;100558.94;;;17.66;100.00
29909;BME280;36247;51.952;6.146;2023-07-29T05:36:14;100552.88;;;17.57;100.00
29909;BME280;36247;51.952;6.146;2023-07-29T05:38:44;100558.97;;;17.64;100.00
29909;BME280;36247;51.952;6.146;2023-07-29T05:41:09;100569.56;;;17.70;100.00
29909;BME280;36247;51.952;6.146;2023-07-29T05:43:38;100564.44;;;17.59;100.00
29909;BME280;36247;51.952;6.146;2023-07-29T05:46:15;100567.94;;;17.63;100.00
29909;BME280;36247;51.952;6.146;2023-07-29T05:48:43;100573.31;;;17.61;100.00
29909;BME280;36247;51.952;6.146;2023-07-29T05:51:09;100585.94;;;17.55;100.00
29909;BME280;36247;51.952;6.146;2023-07-29T05:53:36;100585.03;;;17.56;100.00
29909;BME280;36247;51.952;6.146;2023-07-29T05:56:02;100588.66;;;17.53;100.00
29909;BME280;36247;51.952;6.146;2023-07-29T05:58:28;100585.09;;;17.53;100.00
29909;BME280;36247;51.952;6.146;2023-07-29T06:00:57;100594.75;;;17.60;100.00
29909;BME280;36247;51.952;6.146;2023-07-29T06:03:23;100588.41;;;17.66;100.00
29909;BME280;36247;51.952;6.146;2023-07-29T06:05:50;100592.16;;;17.57;100.00
29909;BME280;36247;51.952;6.146;2023-07-29T06:08:16;100590.28;;;17.62;100.00
29909;BME280;36247;51.952;6.146;2023-07-29T06:10:44;100588.31;;;17.70;100.00
29909;BME280;36247;51.952;6.146;2023-07-29T06:13:15;100584.69;;;17.74;100.00
29909;BME280;36247;51.952;6.146;2023-07-29T06:15:46;100589.91;;;17.80;100.00
29909;BME280;36247;51.952;6.146;2023-07-29T06:18:13;100589.13;;;17.75;100.00
29909;BME280;36247;51.952;6.146;2023-07-29T06:20:43;100584.94;;;17.62;100.00
29909;BME280;36247;51.952;6.146;2023-07-29T06:23:13;100581.13;;;17.74;100.00
29909;BME280;36247;51.952;6.146;2023-07-29T06:25:45;100584.53;;;17.80;100.00
29909;BME280;36247;51.952;6.146;2023-07-29T06:28:13;100578.25;;;17.83;100.00
29909;BME280;36247;51.952;6.146;2023-07-29T06:30:44;100584.19;;;18.01;100.00
29909;BME280;36247;51.952;6.146;2023-07-29T06:33:16;100585.09;;;18.00;100.00
29909;BME280;36247;51.952;6.146;2023-07-29T06:35:43;100584.25;;;17.97;100.00
29909;BME280;36247;51.952;6.146;2023-07-29T06:38:09;100579.72;;;18.00;100.00
29909;BME280;36247;51.952;6.146;2023-07-29T06:40:34;100577.75;;;18.09;100.00
29909;BME280;36247;51.952;6.146;2023-07-29T06:43:00;100571.13;;;18.26;100.00
29909;BME280;36247;51.952;6.146;2023-07-29T06:45:26;100575.94;;;18.50;100.00
29909;BME280;36247;51.952;6.146;2023-07-29T06:47:52;100567.16;;;18.44;100.00
29909;BME280;36247;51.952;6.146;2023-07-29T06:50:17;100583.81;;;18.57;100.00
29909;BME280;36247;51.952;6.146;2023-07-29T06:52:45;100580.81;;;18.72;100.00
29909;BME280;36247;51.952;6.146;2023-07-29T06:55:14;100577.56;;;18.58;100.00
29909;BME280;36247;51.952;6.146;2023-07-29T06:57:43;100579.44;;;18.54;100.00
29909;BME280;36247;51.952;6.146;2023-07-29T07:00:10;100569.34;;;18.64;100.00
29909;BME280;36247;51.952;6.146;2023-07-29T07:02:38;100575.56;;;18.66;100.00
29909;BME280;36247;51.952;6.146;2023-07-29T07:05:09;100580.22;;;18.58;100.00
29909;BME280;36247;51.952;6.146;2023-07-29T07:07:34;100580.84;;;18.71;100.00
29909;BME280;36247;51.952;6.146;2023-07-29T07:10:00;100582.22;;;18.89;100.00
29909;BME280;36247;51.952;6.146;2023-07-29T07:12:26;100578.25;;;18.66;100.00
29909;BME280;36247;51.952;6.146;2023-07-29T07:14:52;100582.25;;;18.87;100.00
29909;BME280;36247;51.952;6.146;2023-07-29T07:17:18;100579.06;;;18.70;100.00
29909;BME280;36247;51.952;6.146;2023-07-29T07:19:44;100594.06;;;18.78;100.00
29909;BME280;36247;51.952;6.146;2023-07-29T07:22:09;100596.38;;;19.30;100.00
29909;BME280;36247;51.952;6.146;2023-07-29T07:24:38;100588.16;;;19.36;100.00
29909;BME280;36247;51.952;6.146;2023-07-29T07:27:04;100588.41;;;19.27;100.00
29909;BME280;36247;51.952;6.146;2023-07-29T07:29:30;100581.81;;;19.71;100.00
29909;BME280;36247;51.952;6.146;2023-07-29T07:31:56;100586.59;;;19.95;100.00
29909;BME280;36247;51.952;6.146;2023-07-29T07:34:22;100588.75;;;19.47;100.00
29909;BME280;36247;51.952;6.146;2023-07-29T07:36:48;100590.75;;;19.72;100.00
29909;BME280;36247;51.952;6.146;2023-07-29T07:39:15;100585.81;;;19.89;100.00
29909;BME280;36247;51.952;6.146;2023-07-29T07:41:43;100588.34;;;20.25;100.00
29909;BME280;36247;51.952;6.146;2023-07-29T07:44:13;100585.25;;;20.39;100.00
29909;BME280;36247;51.952;6.146;2023-07-29T07:46:44;100613.56;;;19.92;100.00
29909;BME280;36247;51.952;6.146;2023-07-29T07:49:13;100606.88;;;19.72;100.00
29909;BME280;36247;51.952;6.146;2023-07-29T07:51:44;100618.56;;;19.71;100.00
29909;BME280;36247;51.952;6.146;2023-07-29T07:54:10;100615.88;;;19.38;100.00
29909;BME280;36247;51.952;6.146;2023-07-29T07:56:38;100610.50;;;19.71;100.00
29909;BME280;36247;51.952;6.146;2023-07-29T07:59:04;100607.53;;;19.49;100.00
29909;BME280;36247;51.952;6.146;2023-07-29T08:01:37;100608.66;;;19.73;100.00
29909;BME280;36247;51.952;6.146;2023-07-29T08:04:03;100606.22;;;19.64;100.00
29909;BME280;36247;51.952;6.146;2023-07-29T08:06:29;100595.25;;;19.71;100.00
29909;BME280;36247;51.952;6.146;2023-07-29T08:08:55;100595.59;;;20.23;100.00
29909;BME280;36247;51.952;6.146;2023-07-29T08:11:21;100597.50;;;20.50;100.00
29909;BME280;36247;51.952;6.146;2023-07-29T08:13:46;100593.22;;;20.42;100.00
29909;BME280;36247;51.952;6.146;2023-07-29T08:16:15;100592.69;;;20.59;100.00
29909;BME280;36247;51.952;6.146;2023-07-29T08:18:44;100604.81;;;20.44;100.00
29909;BME280;36247;51.952;6.146;2023-07-29T08:21:09;100612.53;;;19.96;100.00
29909;BME280;36247;51.952;6.146;2023-07-29T08:23:43;100611.25;;;19.78;100.00
29909;BME280;36247;51.952;6.146;2023-07-29T08:26:09;100607.59;;;20.12;100.00
29909;BME280;36247;51.952;6.146;2023-07-29T08:28:38;100617.47;;;19.80;100.00
29909;BME280;36247;51.952;6.146;2023-07-29T08:31:08;100609.16;;;19.89;100.00
29909;BME280;36247;51.952;6.146;2023-07-29T08:33:34;100617.63;;;19.72;100.00
29909;BME280;36247;51.952;6.146;2023-07-29T08:36:00;100611.09;;;19.82;100.00
29909;BME280;36247;51.952;6.146;2023-07-29T08:38:26;100613.94;;;19.76;100.00
29909;BME280;36247;51.952;6.146;2023-07-29T08:41:14;100619.63;;;19.65;100.00
29909;BME280;36247;51.952;6.146;2023-07-29T08:46:19;100621.59;;;19.59;100.00
29909;BME280;36247;51.952;6.146;2023-07-29T08:48:45;100629.31;;;19.71;100.00
29909;BME280;36247;51.952;6.146;2023-07-29T08:51:13;100623.50;;;19.88;100.00
29909;BME280;36247;51.952;6.146;2023-07-29T08:53:43;100622.53;;;19.90;100.00
29909;BME280;36247;51.952;6.146;2023-07-29T08:56:14;100627.78;;;19.95;100.00
29909;BME280;36247;51.952;6.146;2023-07-29T08:58:43;100617.50;;;20.71;100.00
29909;BME280;36247;51.952;6.146;2023-07-29T09:01:13;100620.66;;;20.54;100.00
29909;BME280;36247;51.952;6.146;2023-07-29T09:03:44;100630.19;;;20.36;100.00
29909;BME280;36247;51.952;6.146;2023-07-29T09:06:13;100623.25;;;20.57;100.00
29909;BME280;36247;51.952;6.146;2023-07-29T09:08:44;100624.53;;;20.75;100.00
29909;BME280;36247;51.952;6.146;2023-07-29T09:11:13;100625.78;;;20.63;100.00
29909;BME280;36247;51.952;6.146;2023-07-29T09:13:44;100616.91;;;20.59;100.00
29909;BME280;36247;51.952;6.146;2023-07-29T09:16:13;100623.97;;;21.20;100.00
29909;BME280;36247;51.952;6.146;2023-07-29T09:18:44;100616.75;;;20.64;100.00
29909;BME280;36247;51.952;6.146;2023-07-29T09:21:11;100617.16;;;21.08;100.00
29909;BME280;36247;51.952;6.146;2023-07-29T09:23:44;100622.06;;;21.49;100.00
29909;BME280;36247;51.952;6.146;2023-07-29T09:26:13;100612.03;;;21.01;100.00
29909;BME280;36247;51.952;6.146;2023-07-29T09:28:43;100607.84;;;21.19;100.00
29909;BME280;36247;51.952;6.146;2023-07-29T09:31:19;100613.03;;;20.98;100.00
29909;BME280;36247;51.952;6.146;2023-07-29T09:33:45;100610.91;;;21.08;100.00
29909;BME280;36247;51.952;6.146;2023-07-29T09:36:13;100606.38;;;20.82;100.00
29909;BME280;36247;51.952;6.146;2023-07-29T09:38:44;100601.56;;;21.18;100.00
29909;BME280;36247;51.952;6.146;2023-07-29T09:41:16;100602.38;;;20.67;100.00
29909;BME280;36247;51.952;6.146;2023-07-29T09:43:43;100603.38;;;20.33;100.00
29909;BME280;36247;51.952;6.146;2023-07-29T09:46:09;100609.31;;;20.44;100.00
29909;BME280;36247;51.952;6.146;2023-07-29T09:48:35;100611.34;;;20.36;100.00
29909;BME280;36247;51.952;6.146;2023-07-29T09:51:15;100605.63;;;20.76;100.00
29909;BME280;36247;51.952;6.146;2023-07-29T09:53:44;100597.69;;;21.54;100.00
29909;BME280;36247;51.952;6.146;2023-07-29T09:56:13;100584.34;;;22.23;100.00
29909;BME280;36247;51.952;6.146;2023-07-29T09:58:44;100603.34;;;21.71;100.00
29909;BME280;36247;51.952;6.146;2023-07-29T10:01:15;100585.03;;;22.28;100.00
29909;BME280;36247;51.952;6.146;2023-07-29T10:03:44;100596.56;;;21.84;100.00
29909;BME280;36247;51.952;6.146;2023-07-29T10:06:15;100600.09;;;21.61;100.00
29909;BME280;36247;51.952;6.146;2023-07-29T10:08:44;100600.09;;;21.61;100.00
29909;BME280;36247;51.952;6.146;2023-07-29T10:11:20;100602.84;;;21.33;100.00
29909;BME280;36247;51.952;6.146;2023-07-29T10:13:48;100603.63;;;21.37;100.00
29909;BME280;36247;51.952;6.146;2023-07-29T10:16:15;100605.38;;;21.12;100.00
29909;BME280;36247;51.952;6.146;2023-07-29T10:18:44;100606.25;;;21.13;100.00
29909;BME280;36247;51.952;6.146;2023-07-29T10:21:15;100595.22;;;21.73;100.00
29909;BME280;36247;51.952;6.146;2023-07-29T10:23:46;100603.84;;;21.57;100.00
29909;BME280;36247;51.952;6.146;2023-07-29T10:26:16;100586.63;;;22.10;100.00
29909;BME280;36247;51.952;6.146;2023-07-29T10:28:47;100594.13;;;21.26;100.00
29909;BME280;36247;51.952;6.146;2023-07-29T10:31:17;100591.19;;;21.59;100.00
29909;BME280;36247;51.952;6.146;2023-07-29T10:33:46;100594.47;;;21.67;100.00
29909;BME280;36247;51.952;6.146;2023-07-29T10:36:15;100589.56;;;22.28;100.00
29909;BME280;36247;51.952;6.146;2023-07-29T10:38:44;100594.47;;;21.93;100.00
29909;BME280;36247;51.952;6.146;2023-07-29T10:41:13;100599.34;;;21.83;100.00
29909;BME280;36247;51.952;6.146;2023-07-29T10:43:43;100595.53;;;22.12;100.00
29909;BME280;36247;51.952;6.146;2023-07-29T10:46:22;100594.03;;;23.19;100.00
29909;BME280;36247;51.952;6.146;2023-07-29T10:48:54;100593.78;;;23.66;100.00
29909;BME280;36247;51.952;6.146;2023-07-29T10:51:30;100589.75;;;22.91;100.00
29909;BME280;36247;51.952;6.146;2023-07-29T10:54:16;100596.88;;;22.48;100.00
29909;BME280;36247;51.952;6.146;2023-07-29T10:56:48;100589.81;;;22.45;100.00
29909;BME280;36247;51.952;6.146;2023-07-29T11:02:11;100582.09;;;22.58;100.00
29909;BME280;36247;51.952;6.146;2023-07-29T11:04:50;100578.25;;;22.64;100.00
29909;BME280;36247;51.952;6.146;2023-07-29T11:15:26;100584.84;;;23.01;100.00
29909;BME280;36247;51.952;6.146;2023-07-29T11:18:00;100575.88;;;22.56;100.00
29909;BME280;36247;51.952;6.146;2023-07-29T11:20:27;100577.06;;;23.15;100.00
29909;BME280;36247;51.952;6.146;2023-07-29T11:22:55;100577.56;;;23.25;100.00
29909;BME280;36247;51.952;6.146;2023-07-29T11:25:21;100577.75;;;23.20;100.00
29909;BME280;36247;51.952;6.146;2023-07-29T11:27:47;100573.25;;;24.02;100.00
29909;BME280;36247;51.952;6.146;2023-07-29T11:30:15;100579.66;;;23.39;100.00
29909;BME280;36247;51.952;6.146;2023-07-29T11:32:45;100570.81;;;23.75;100.00
29909;BME280;36247;51.952;6.146;2023-07-29T11:35:14;100569.63;;;23.62;100.00
29909;BME280;36247;51.952;6.146;2023-07-29T11:37:46;100575.56;;;23.29;100.00
29909;BME280;36247;51.952;6.146;2023-07-29T11:40:21;100563.47;;;24.18;100.00
29909;BME280;36247;51.952;6.146;2023-07-29T11:42:49;100568.88;;;24.18;100.00
29909;BME280;36247;51.952;6.146;2023-07-29T11:45:16;100578.47;;;23.24;100.00
29909;BME280;36247;51.952;6.146;2023-07-29T11:47:45;100576.28;;;23.34;100.00
29909;BME280;36247;51.952;6.146;2023-07-29T11:50:14;100570.28;;;22.83;100.00
29909;BME280;36247;51.952;6.146;2023-07-29T11:52:46;100573.16;;;23.22;100.00
29909;BME280;36247;51.952;6.146;2023-07-29T11:55:15;100567.75;;;23.00;100.00
29909;BME280;36247;51.952;6.146;2023-07-29T11:57:45;100565.94;;;23.01;100.00
29909;BME280;36247;51.952;6.146;2023-07-29T12:00:16;100569.19;;;23.52;100.00
29909;BME280;36247;51.952;6.146;2023-07-29T12:02:45;100575.94;;;22.77;100.00
29909;BME280;36247;51.952;6.146;2023-07-29T12:05:14;100581.28;;;22.56;100.00
29909;BME280;36247;51.952;6.146;2023-07-29T12:07:44;100593.25;;;22.25;100.00
29909;BME280;36247;51.952;6.146;2023-07-29T12:10:16;100594.41;;;21.94;100.00
29909;BME280;36247;51.952;6.146;2023-07-29T12:15:30;100623.50;;;20.79;100.00
29909;BME280;36247;51.952;6.146;2023-07-29T12:17:56;100632.81;;;20.07;100.00
29909;BME280;36247;51.952;6.146;2023-07-29T12:20:22;100636.53;;;19.69;100.00
29909;BME280;36247;51.952;6.146;2023-07-29T12:23:01;100645.84;;;19.55;100.00
29909;BME280;36247;51.952;6.146;2023-07-29T12:25:28;100641.53;;;19.15;100.00
29909;BME280;36247;51.952;6.146;2023-07-29T12:27:54;100648.88;;;19.07;100.00
29909;BME280;36247;51.952;6.146;2023-07-29T12:30:21;100648.91;;;18.66;100.00
29909;BME280;36247;51.952;6.146;2023-07-29T12:32:47;100641.84;;;18.62;100.00
29909;BME280;36247;51.952;6.146;2023-07-29T12:35:15;100653.78;;;18.47;100.00
29909;BME280;36247;51.952;6.146;2023-07-29T12:37:43;100655.00;;;18.32;100.00
29909;BME280;36247;51.952;6.146;2023-07-29T12:40:21;100647.72;;;18.39;100.00
29909;BME280;36247;51.952;6.146;2023-07-29T12:42:48;100645.63;;;18.52;100.00
29909;BME280;36247;51.952;6.146;2023-07-29T12:45:15;100642.09;;;18.52;100.00
29909;BME280;36247;51.952;6.146;2023-07-29T12:47:44;100649.38;;;18.45;100.00
29909;BME280;36247;51.952;6.146;2023-07-29T12:50:13;100651.75;;;18.59;100.00
29909;BME280;36247;51.952;6.146;2023-07-29T12:52:39;100654.22;;;18.68;100.00
29909;BME280;36247;51.952;6.146;2023-07-29T12:55:09;100657.63;;;19.15;100.00
29909;BME280;36247;51.952;6.146;2023-07-29T12:57:41;100658.63;;;19.11;100.00
29909;BME280;36247;51.952;6.146;2023-07-29T13:00:09;100652.78;;;19.30;100.00
29909;BME280;36247;51.952;6.146;2023-07-29T13:02:35;100659.19;;;19.24;100.00
29909;BME280;36247;51.952;6.146;2023-07-29T13:05:00;100669.09;;;20.24;100.00
29909;BME280;36247;51.952;6.146;2023-07-29T13:07:26;100662.69;;;19.28;100.00